17 mai 2022

Temps Code Temps Temp. Vue Des nuages Vent METAR/SPECI
14:25
V
23 °C 10 km+ - 250°   250° 5 kt METAR EHGG 171225Z AUTO 25005KT 9999 NSC 23/09 Q1020 NOSIG
13:55
V
22 °C 10 km+ - 290°   290° 6 kt METAR EHGG 171155Z AUTO 29006KT 200V360 9999 NSC 22/08 Q1020 NOSIG
13:25
V
23 °C 10 km+ - Var   Var 3 kt METAR EHGG 171125Z AUTO VRB03KT 9999 FEW048 23/10 Q1020 NOSIG
12:55
V
22 °C 10 km+ - 280°   280° 6 kt METAR EHGG 171055Z AUTO 28006KT 200V330 9999 NSC 22/10 Q1020 NOSIG
12:25
V
22 °C 10 km+ - Var   Var 6 kt METAR EHGG 171025Z AUTO VRB06KT 9999 NSC 22/11 Q1020 NOSIG
11:55
V
21 °C 10 km+ - 270°   270° 7 kt METAR EHGG 170955Z AUTO 27007KT 220V330 9999 SCT030 21/12 Q1020 NOSIG
11:25
V
21 °C 10 km+ - 250°   250° 7 kt METAR EHGG 170925Z AUTO 25007KT 200V310 9999 NSC 21/13 Q1020 NOSIG
10:55
V
20 °C 10 km+ - 270°   270° 6 kt METAR EHGG 170855Z AUTO 27006KT 180V310 9999 NSC 20/13 Q1020 NOSIG
10:25
V
19 °C 10 km+ - 280°   280° 7 kt METAR EHGG 170825Z AUTO 28007KT 230V340 9999 NSC 19/13 Q1020 NOSIG
09:55
V
19 °C 10 km+ - 270°   270° 6 kt METAR EHGG 170755Z AUTO 27006KT 230V330 9999 NSC 19/13 Q1020 NOSIG
09:25
V
18 °C 10 km+ - 250°   250° 7 kt METAR EHGG 170725Z AUTO 25007KT 190V290 9999 NSC 18/13 Q1020 NOSIG
08:55
V
17 °C 10 km+ - 260°   260° 6 kt METAR EHGG 170655Z AUTO 26006KT 220V320 9999 NSC 17/13 Q1020 NOSIG
08:25
V
16 °C 10 km+ - 270°   270° 7 kt METAR EHGG 170625Z AUTO 27007KT 230V320 9999 NSC 16/13 Q1019 NOSIG
07:55
V
16 °C 10 km+ - 240°   240° 5 kt METAR EHGG 170555Z AUTO 24005KT 190V290 9999 NSC 16/13 Q1019 NOSIG
07:25
V
15 °C 10 km+ - 240°   240° 6 kt METAR EHGG 170525Z AUTO 24006KT 210V270 9999 NSC 15/13 Q1019 NOSIG
06:55
V
15 °C 10 km+ - 230°   230° 7 kt METAR EHGG 170455Z AUTO 23007KT 200V270 9999 NSC 15/13 Q1019 NOSIG
06:25
V
12 °C 10 km+ - 220°   220° 5 kt METAR EHGG 170425Z AUTO 22005KT 9999 NSC 12/12 Q1019 NOSIG
05:55
V
11 °C 10 km+ - 220°   220° 6 kt METAR EHGG 170355Z AUTO 22006KT 9999 NSC 11/11 Q1018 NOSIG
05:25
V
12 °C 10 km+ - 230°   230° 6 kt METAR EHGG 170325Z AUTO 23006KT 9999 NCD 12/11 Q1018
04:55
V
11 °C 10 km+ - 220°   220° 6 kt METAR EHGG 170255Z AUTO 22006KT 9999 NSC 11/10 Q1018
04:25
V
12 °C 10 km+ - 230°   230° 5 kt METAR EHGG 170225Z AUTO 23005KT 9999 NSC 12/11 Q1018
03:55
V
12 °C 10 km+ - 220°   220° 6 kt METAR EHGG 170155Z AUTO 22006KT 9999 NSC 12/11 Q1018
03:25
V
13 °C 10 km+ - 230°   230° 7 kt METAR EHGG 170125Z AUTO 23007KT 9999 NCD 13/12 Q1018
02:55
V
13 °C 10 km+ - 230°   230° 8 kt METAR EHGG 170055Z AUTO 23008KT 9999 NSC 13/12 Q1018
02:25
V
13 °C 10 km+ - 230°   230° 7 kt METAR EHGG 170025Z AUTO 23007KT 9999 NSC 13/12 Q1018
01:55
V
13 °C 10 km+ - 230°   230° 6 kt METAR EHGG 162355Z AUTO 23006KT 9999 NCD 13/12 Q1018
01:25
V
13 °C 10 km+ - 230°   230° 6 kt METAR EHGG 162325Z AUTO 23006KT 9999 NCD 13/12 Q1018
00:55
V
15 °C 10 km+ 3.700 ft 240°   240° 6 kt METAR EHGG 162255Z AUTO 24006KT 9999 OVC037 15/13 Q1018
00:25
V
16 °C 10 km+ 4.900 ft 230°   230° 7 kt METAR EHGG 162225Z AUTO 23007KT 9999 BKN049 16/13 Q1018

16 mai 2022

Temps Code Temps Temp. Vue Des nuages Vent METAR/SPECI
23:55
V
16 °C 10 km+ 4.500 ft 230°   230° 5 kt METAR EHGG 162155Z AUTO 23005KT 9999 OVC045 16/13 Q1018
23:25
V
16 °C 10 km+ 4.700 ft 240°   240° 7 kt METAR EHGG 162125Z AUTO 24007KT 210V270 9999 FEW021 OVC047 16/13 Q1018
22:55
M
16 °C 10 km+ 2.800 ft 240°   240° 8 kt METAR EHGG 162055Z AUTO 24008KT 200V270 9999 SCT025 BKN028 BKN032 16/13 Q1017 NOSIG
22:25
V
17 °C 10 km+ 4.600 ft 240°   240° 9 kt METAR EHGG 162025Z AUTO 24009KT 210V270 9999 FEW017 SCT025 OVC046 17/13 Q1017 NOSIG
21:55
M
17 °C 10 km+ 1.900 ft 230°   230° 9 kt METAR EHGG 161955Z AUTO 23009KT 9999 OVC019 17/14 Q1017 NOSIG
21:25
M
17 °C 10 km+ 1.800 ft 230°   230° 9 kt METAR EHGG 161925Z AUTO 23009KT 210V270 9999 OVC018 17/14 Q1017 TEMPO BKN014
20:55
M
17 °C 10 km+ 2.300 ft 220°   220° 11 kt METAR EHGG 161855Z AUTO 22011KT 9999 FEW015CB BKN023 OVC033 17/14 Q1016 TEMPO BKN014
20:25
M
17 °C 10 km+ 1.700 ft 230°   230° 9 kt METAR EHGG 161825Z AUTO 23009KT 200V260 9999 FEW015CB OVC017 17/14 Q1016 RETS BECMG BKN030 TEMPO BKN014
19:55
M
17 °C 8 km 1.600 ft 220°   220° 7 kt METAR EHGG 161755Z AUTO 22007KT 190V250 8000 TS FEW015CB OVC016 17/15 Q1016 REDZ BECMG NSW BKN030 TEMPO BKN014
19:25
V
18 °C 10 km+ 4.600 ft 250°   250° 11 kt METAR EHGG 161725Z AUTO 25011KT 220V280 9999 DZ TS FEW015CB SCT042 OVC046 18/14 Q1016 BECMG NSW TEMPO 7000 -SHRA FEW050CB
18:55
V
18 °C 10 km+ - 250°   250° 10 kt METAR EHGG 161655Z AUTO 25010KT 220V280 9999 FEW017 SCT042 18/15 Q1016 TEMPO 7000 -SHRA FEW050CB
18:25
V
18 °C 10 km+ - 250°   250° 11 kt METAR EHGG 161625Z AUTO 25011KT 9999 NSC 18/15 Q1015 REDZ NOSIG
17:55
V
19 °C 10 km+ - 240°   240° 15 kt METAR EHGG 161555Z AUTO 24015KT 210V270 9999 -RA NSC 19/16 Q1015 TEMPO 6000 SHRA FEW050CB
17:25
V
22 °C 10 km+ - 260°   260° 12 kt METAR EHGG 161525Z AUTO 26012KT 230V300 9999 SCT037 22/15 Q1015 TEMPO 6000 SHRA FEW050CB
16:55
V
23 °C 10 km+ - 250°   250° 10 kt METAR EHGG 161455Z AUTO 25010KT 210V290 9999 NSC 23/14 Q1014 TEMPO 6000 SHRA FEW050CB
16:25
V
24 °C 10 km+ - 260°   260° 9 kt METAR EHGG 161425Z AUTO 26009KT 230V300 9999 NSC 24/13 Q1014 NOSIG
15:55
V
23 °C 10 km+ - 230°   230° 7 kt METAR EHGG 161355Z AUTO 23007KT 190V270 9999 NSC 23/13 Q1014 BECMG 25010KT
15:25
V
24 °C 10 km+ - 200°   200° 6 kt METAR EHGG 161325Z AUTO 20006KT 140V240 9999 NSC 24/13 Q1014 BECMG 25010KT
14:55
V
23 °C 10 km+ - 170°   170° 4 kt METAR EHGG 161255Z AUTO 17004KT 120V210 9999 NSC 23/12 Q1014 REDZ NOSIG
14:25
V
23 °C 10 km+ - 200°   200° 7 kt METAR EHGG 161225Z AUTO 20007KT 170V230 9999 FEW040CB 23/13 Q1014 BECMG CAVOK
13:55
V
23 °C 10 km+ - 170°   170° 8 kt METAR EHGG 161155Z AUTO 17008KT 130V210 9999 -RA FEW045 FEW048CB 23/11 Q1014 BECMG CAVOK
13:25
V
23 °C 10 km+ - 120°   120° 6 kt METAR EHGG 161125Z AUTO 12006KT 070V200 9999 NSC 23/10 Q1014 NOSIG
12:55
V
24 °C 10 km+ - 150°   150° 8 kt METAR EHGG 161055Z AUTO 15008KT 090V210 9999 NSC 24/09 Q1014 NOSIG
12:25
V
24 °C 10 km+ - 110°   110° 8 kt METAR EHGG 161025Z AUTO 11008KT 070V160 9999 NSC 24/11 Q1014 NOSIG
11:55
V
23 °C 10 km+ - 130°   130° 9 kt METAR EHGG 160955Z AUTO 13009KT 070V180 9999 NSC 23/10 Q1014 NOSIG
11:25
V
21 °C 10 km+ - 110°   110° 7 kt METAR EHGG 160925Z AUTO 11007KT 050V160 9999 NSC 21/09 Q1014 NOSIG
10:55
V
21 °C 10 km+ - 100°   100° 8 kt METAR EHGG 160855Z AUTO 10008KT 060V160 9999 NSC 21/10 Q1014 NOSIG
10:25
V
20 °C 10 km+ - 100°   100° 10 kt METAR EHGG 160825Z AUTO 10010KT 050V140 9999 NSC 20/09 Q1014 NOSIG
09:55
V
18 °C 10 km+ - 100°   100° 10 kt METAR EHGG 160755Z AUTO 10010KT 050V150 9999 NSC 18/09 Q1014 NOSIG
09:25
V
17 °C 10 km+ - 100°   100° 10 kt METAR EHGG 160725Z AUTO 10010KT 070V150 9999 NSC 17/09 Q1014 NOSIG
08:55
V
16 °C 10 km+ - 100°   100° 8 kt METAR EHGG 160655Z AUTO 10008KT 060V140 9999 NSC 16/09 Q1014 NOSIG
08:25
V
14 °C 10 km+ - 100°   100° 9 kt METAR EHGG 160625Z AUTO 10009KT 060V130 9999 NSC 14/08 Q1014 NOSIG
07:55
V
14 °C 10 km+ - 090°   090° 9 kt METAR EHGG 160555Z AUTO 09009KT 060V120 9999 NSC 14/08 Q1014 NOSIG
07:25
V
13 °C 10 km+ - 090°   090° 8 kt METAR EHGG 160525Z AUTO 09008KT 9999 NSC 13/07 Q1014 NOSIG
06:55
V
12 °C 10 km+ - 090°   090° 9 kt METAR EHGG 160455Z AUTO 09009KT 9999 NSC 12/07 Q1014 NOSIG
06:25
V
12 °C 10 km+ - 090°   090° 9 kt METAR EHGG 160425Z AUTO 09009KT 9999 NSC 12/07 Q1014 NOSIG
05:55
V
11 °C 10 km+ - 080°   080° 9 kt METAR EHGG 160355Z AUTO 08009KT 9999 NSC 11/07 Q1015
05:25
V
11 °C 10 km+ - 080°   080° 9 kt METAR EHGG 160325Z AUTO 08009KT 9999 NSC 11/07 Q1015
04:55
V
12 °C 10 km+ - 080°   080° 9 kt METAR EHGG 160255Z AUTO 08009KT 9999 NSC 12/07 Q1015
04:25
V
12 °C 10 km+ - 080°   080° 10 kt METAR EHGG 160225Z AUTO 08010KT 050V110 9999 NSC 12/07 Q1015
03:55
V
12 °C 10 km+ - 070°   070° 9 kt METAR EHGG 160155Z AUTO 07009KT 9999 NSC 12/08 Q1016
03:25
V
12 °C 10 km+ - 080°   080° 8 kt METAR EHGG 160125Z AUTO 08008KT 050V110 9999 NSC 12/08 Q1016
02:55
V
12 °C 10 km+ - 080°   080° 8 kt METAR EHGG 160055Z AUTO 08008KT 9999 NSC 12/09 Q1016
02:25
V
12 °C 10 km+ - 080°   080° 7 kt METAR EHGG 160025Z AUTO 08007KT 9999 NSC 12/09 Q1016
01:55
V
11 °C 10 km+ - 070°   070° 6 kt METAR EHGG 152355Z AUTO 07006KT 9999 NSC 11/09 Q1017
01:25
V
11 °C 10 km+ - 070°   070° 4 kt METAR EHGG 152325Z AUTO 07004KT 9999 NSC 11/09 Q1017
00:55
V
10 °C 10 km+ - 060°   060° 4 kt METAR EHGG 152255Z AUTO 06004KT 9999 NSC 10/09 Q1017
00:25
V
11 °C 10 km+ - 080°   080° 4 kt METAR EHGG 152225Z AUTO 08004KT 9999 NSC 11/10 Q1017

15 mai 2022

Temps Code Temps Temp. Vue Des nuages Vent METAR/SPECI
23:55
V
12 °C 10 km+ - 070°   070° 6 kt METAR EHGG 152155Z AUTO 07006KT 040V100 9999 NSC 12/10 Q1017
23:25
V
13 °C 10 km+ - 060°   060° 8 kt METAR EHGG 152125Z AUTO 06008KT 9999 NSC 13/10 Q1018
22:55
V
13 °C 10 km+ - 060°   060° 10 kt METAR EHGG 152055Z AUTO 06010KT 9999 NCD 13/10 Q1018 NOSIG
22:25
V
14 °C 10 km+ - 060°   060° 10 kt METAR EHGG 152025Z AUTO 06010KT 9999 NCD 14/10 Q1018 NOSIG
21:55
V
15 °C 10 km+ - 060°   060° 11 kt METAR EHGG 151955Z AUTO 06011KT 9999 NCD 15/10 Q1018 NOSIG
21:25
V
16 °C 10 km+ - 060°   060° 11 kt METAR EHGG 151925Z AUTO 06011KT 9999 NCD 16/11 Q1017 NOSIG
20:55
V
17 °C 10 km+ - 050°   050° 12 kt METAR EHGG 151855Z AUTO 05012KT 9999 NSC 17/11 Q1017 NOSIG
20:25
V
18 °C 10 km+ - 050°   050° 11 kt METAR EHGG 151825Z AUTO 05011KT 020V080 9999 NSC 18/12 Q1017 NOSIG
19:55
V
19 °C 10 km+ - 030°   030° 10 kt METAR EHGG 151755Z AUTO 03010KT 350V060 9999 NSC 19/12 Q1017 NOSIG
19:25
V
19 °C 10 km+ - 030°   030° 12 kt METAR EHGG 151725Z AUTO 03012KT 360V060 9999 NSC 19/12 Q1018 NOSIG
18:55
V
21 °C 10 km+ - 050°   050° 11 kt METAR EHGG 151655Z AUTO 05011KT 360V080 9999 NSC 21/08 Q1018 NOSIG
18:25
V
21 °C 10 km+ - 050°   050° 11 kt METAR EHGG 151625Z AUTO 05011KT 9999 NSC 21/07 Q1018 NOSIG
17:55
V
21 °C 10 km+ - 040°   040° 10 kt METAR EHGG 151555Z AUTO 04010KT 010V070 9999 NSC 21/07 Q1018 NOSIG
17:25
V
21 °C 10 km+ - 050°   050° 10 kt METAR EHGG 151525Z AUTO 05010KT 010V100 9999 NSC 21/09 Q1018 NOSIG
16:55
V
21 °C 10 km+ - 050°   050° 10 kt METAR EHGG 151455Z AUTO 05010KT 010V090 9999 NSC 21/07 Q1019 NOSIG
16:25
V
21 °C 10 km+ - 050°   050° 8 kt METAR EHGG 151425Z AUTO 05008KT 010V100 9999 NSC 21/07 Q1019 NOSIG
15:55
V
21 °C 10 km+ - 040°   040° 9 kt METAR EHGG 151355Z AUTO 04009KT 010V080 9999 NSC 21/08 Q1019 NOSIG
15:25
V
21 °C 10 km+ - 050°   050° 10 kt METAR EHGG 151325Z AUTO 05010KT 010V100 9999 NCD 21/08 Q1020 NOSIG
14:55
V
21 °C 10 km+ - 060°   060° 9 kt METAR EHGG 151255Z AUTO 06009KT 340V120 9999 NCD 21/07 Q1020 NOSIG
Données plus anciennes

Télécharge notre application

Un accès facile à toute la météo aéronautique sur ton téléphone portable et ta tablette.
Avec de nombreuses fonctionnalités non disponibles sur le site Web, comme la prise en charge hors ligne et une liste personnelle d'aéroports.